Kezdőlap
METAR-TAF:

METAR-TAF

Repülőterek :

Oujda, Marokkó

földrajzi szélesség: 34-47N, földrajzi hosszúság: 001-56W, magasság: 468 m

Jelenlegi meteorológiai megfigyelések

A jelentés 23 perccel ezelõtt készült, 13:00 UTC
Nyugat-északnyugati szél 5 kt, nyugat-délnyugati és északi között változik
Hőmérséklet 17°C
Páratartalom 39%
Légköri nyomás 1018 hPa
Látótávolság 10 km, vagy több
Kevés felhő 3000 lábon

METAR: GMFO 291300Z 30005KT 240V010 9999 FEW030 17/03 Q1018 NOSIG

Idő: 14:23 (13:23 UTC)

Előrejelzés

A jelentés 2 órával és 23 perccel ezelõtt készült, 11:00 UTC
Az előrejelzés 29-én 12 óra UTC és 30-én 18 óra UTC között érvényes
Különbözõ irányokból fújó szél 4 kt
Látótávolság 10 km, vagy több
Kevés felhő 2600 lábon
29-én 12 óra UTC és 29-én 18 óra UTC között ideiglenes
Északi szél 14 kt

TAF: GMFO 291100Z 2912/3018 VRB04KT 9999 FEW026 TEMPO 2912/2918 36014KT

Meteorológiai megfigyelések és előrejelzések több, mint 4000 repülőtéren (METAR és TAF jelentéseket).

A térképen piros és sárga pontok jelzik az elérhető meteorológiai állomásokat.

Mozgassa az egeret a pont fölött, hogy megjelenjen az állomás neve.

Azután kattintson az időjárási megfigyelések és előrejelzések megtekintéséhez.

A térkép megváltoztatása: kattintson a fekete keresztel jelölt zöld gombra ráközelítéshez, a vonallal jelölt zöld gombra távolításhoz, vagy a zöld nyilakra a szomszédos térképek eléréséhez.


METAR-TAF: